sensor_id;sensor_type;location;lat;lon;timestamp;noise_LAeq;noise_LA_min;noise_LA_max;noise_LA01;noise_LA95
71030;Laerm;63723;51.436;5.976;2023-04-15T00:00:10;52.69;50.71;54.66;;
71030;Laerm;63723;51.436;5.976;2023-04-15T00:00:21;52.32;50.60;63.11;;
71030;Laerm;63723;51.436;5.976;2023-04-15T00:00:31;52.21;50.60;53.72;;
71030;Laerm;63723;51.436;5.976;2023-04-15T00:00:42;52.18;50.87;53.64;;
71030;Laerm;63723;51.436;5.976;2023-04-15T00:00:53;51.88;50.41;53.44;;
71030;Laerm;63723;51.436;5.976;2023-04-15T00:01:03;52.07;50.28;62.60;;
71030;Laerm;63723;51.436;5.976;2023-04-15T00:01:14;51.51;49.29;54.14;;
71030;Laerm;63723;51.436;5.976;2023-04-15T00:01:28;52.49;50.32;62.12;;
71030;Laerm;63723;51.436;5.976;2023-04-15T00:01:39;52.66;51.04;54.63;;
71030;Laerm;63723;51.436;5.976;2023-04-15T00:01:49;53.04;51.47;54.67;;
71030;Laerm;63723;51.436;5.976;2023-04-15T00:01:59;52.95;51.77;54.07;;
71030;Laerm;63723;51.436;5.976;2023-04-15T00:02:13;53.40;52.14;54.74;;
71030;Laerm;63723;51.436;5.976;2023-04-15T00:02:24;53.68;52.39;63.73;;
71030;Laerm;63723;51.436;5.976;2023-04-15T00:02:34;53.75;52.37;56.16;;
71030;Laerm;63723;51.436;5.976;2023-04-15T00:02:45;54.09;52.33;63.49;;
71030;Laerm;63723;51.436;5.976;2023-04-15T00:02:55;53.84;52.62;56.72;;
71030;Laerm;63723;51.436;5.976;2023-04-15T00:03:05;53.55;51.85;56.36;;
71030;Laerm;63723;51.436;5.976;2023-04-15T00:03:16;53.57;52.39;55.57;;
71030;Laerm;63723;51.436;5.976;2023-04-15T00:03:26;54.21;52.34;64.31;;
71030;Laerm;63723;51.436;5.976;2023-04-15T00:03:37;54.04;52.75;55.40;;
71030;Laerm;63723;51.436;5.976;2023-04-15T00:03:49;53.88;52.38;56.67;;
71030;Laerm;63723;51.436;5.976;2023-04-15T00:04:00;53.55;51.24;56.73;;
71030;Laerm;63723;51.436;5.976;2023-04-15T00:04:10;53.46;51.92;56.37;;
71030;Laerm;63723;51.436;5.976;2023-04-15T00:04:20;53.96;52.76;55.91;;
71030;Laerm;63723;51.436;5.976;2023-04-15T00:04:31;53.85;52.64;55.82;;
71030;Laerm;63723;51.436;5.976;2023-04-15T00:04:45;53.64;52.34;57.35;;
71030;Laerm;63723;51.436;5.976;2023-04-15T00:04:55;54.13;51.99;64.19;;
71030;Laerm;63723;51.436;5.976;2023-04-15T00:05:05;54.04;52.89;56.89;;
71030;Laerm;63723;51.436;5.976;2023-04-15T00:05:16;54.07;52.79;55.87;;
71030;Laerm;63723;51.436;5.976;2023-04-15T00:05:28;54.26;52.78;64.64;;
71030;Laerm;63723;51.436;5.976;2023-04-15T00:05:39;54.15;53.03;57.54;;
71030;Laerm;63723;51.436;5.976;2023-04-15T00:05:50;54.34;52.73;56.51;;
71030;Laerm;63723;51.436;5.976;2023-04-15T00:06:01;55.28;53.21;64.17;;
71030;Laerm;63723;51.436;5.976;2023-04-15T00:06:11;54.81;52.53;64.95;;
71030;Laerm;63723;51.436;5.976;2023-04-15T00:06:22;54.49;52.89;56.49;;
71030;Laerm;63723;51.436;5.976;2023-04-15T00:06:32;54.28;53.10;55.85;;
71030;Laerm;63723;51.436;5.976;2023-04-15T00:06:48;54.20;53.04;55.88;;
71030;Laerm;63723;51.436;5.976;2023-04-15T00:06:58;54.02;52.53;58.28;;
71030;Laerm;63723;51.436;5.976;2023-04-15T00:07:09;54.54;51.50;65.75;;
71030;Laerm;63723;51.436;5.976;2023-04-15T00:07:20;54.08;52.13;64.59;;
71030;Laerm;63723;51.436;5.976;2023-04-15T00:07:30;53.73;52.79;55.01;;
71030;Laerm;63723;51.436;5.976;2023-04-15T00:07:40;54.02;52.44;64.55;;
71030;Laerm;63723;51.436;5.976;2023-04-15T00:07:51;54.50;52.96;56.85;;
71030;Laerm;63723;51.436;5.976;2023-04-15T00:08:01;54.74;53.40;57.01;;
71030;Laerm;63723;51.436;5.976;2023-04-15T00:08:11;55.40;53.31;59.28;;
71030;Laerm;63723;51.436;5.976;2023-04-15T00:08:22;55.13;52.71;66.71;;
71030;Laerm;63723;51.436;5.976;2023-04-15T00:08:32;54.13;52.95;56.10;;
71030;Laerm;63723;51.436;5.976;2023-04-15T00:08:43;54.09;51.46;57.05;;
71030;Laerm;63723;51.436;5.976;2023-04-15T00:08:53;54.61;53.04;65.80;;
71030;Laerm;63723;51.436;5.976;2023-04-15T00:09:04;54.13;51.69;56.59;;
71030;Laerm;63723;51.436;5.976;2023-04-15T00:09:14;54.10;52.74;56.84;;
71030;Laerm;63723;51.436;5.976;2023-04-15T00:09:25;55.30;52.43;59.02;;
71030;Laerm;63723;51.436;5.976;2023-04-15T00:09:35;54.36;52.23;57.83;;
71030;Laerm;63723;51.436;5.976;2023-04-15T00:09:45;54.48;52.41;58.83;;
71030;Laerm;63723;51.436;5.976;2023-04-15T00:09:56;53.86;52.23;65.20;;
71030;Laerm;63723;51.436;5.976;2023-04-15T00:10:07;54.88;52.20;57.76;;
71030;Laerm;63723;51.436;5.976;2023-04-15T00:10:18;54.68;52.63;57.91;;
71030;Laerm;63723;51.436;5.976;2023-04-15T00:10:28;54.48;51.55;59.50;;
71030;Laerm;63723;51.436;5.976;2023-04-15T00:10:38;52.75;50.93;55.88;;
71030;Laerm;63723;51.436;5.976;2023-04-15T00:10:49;52.76;50.85;54.97;;
71030;Laerm;63723;51.436;5.976;2023-04-15T00:11:00;52.90;51.20;55.89;;
71030;Laerm;63723;51.436;5.976;2023-04-15T00:11:12;52.64;50.69;63.51;;
71030;Laerm;63723;51.436;5.976;2023-04-15T00:11:23;52.74;51.05;54.52;;
71030;Laerm;63723;51.436;5.976;2023-04-15T00:11:33;53.04;50.88;64.79;;
71030;Laerm;63723;51.436;5.976;2023-04-15T00:11:44;52.81;50.58;64.53;;
71030;Laerm;63723;51.436;5.976;2023-04-15T00:11:54;52.84;50.18;55.19;;
71030;Laerm;63723;51.436;5.976;2023-04-15T00:12:05;51.76;49.51;58.34;;
71030;Laerm;63723;51.436;5.976;2023-04-15T00:12:15;52.04;50.14;55.94;;
71030;Laerm;63723;51.436;5.976;2023-04-15T00:12:25;51.78;49.76;56.65;;
71030;Laerm;63723;51.436;5.976;2023-04-15T00:12:36;52.33;50.42;54.66;;
71030;Laerm;63723;51.436;5.976;2023-04-15T00:12:47;52.56;50.39;57.10;;
71030;Laerm;63723;51.436;5.976;2023-04-15T00:12:57;52.50;50.64;56.87;;
71030;Laerm;63723;51.436;5.976;2023-04-15T00:13:07;52.09;50.62;53.79;;
71030;Laerm;63723;51.436;5.976;2023-04-15T00:13:18;52.07;50.25;56.95;;
71030;Laerm;63723;51.436;5.976;2023-04-15T00:13:29;52.10;50.47;54.10;;
71030;Laerm;63723;51.436;5.976;2023-04-15T00:13:40;52.07;50.27;53.48;;
71030;Laerm;63723;51.436;5.976;2023-04-15T00:13:50;51.97;50.44;56.43;;
71030;Laerm;63723;51.436;5.976;2023-04-15T00:14:00;52.05;50.47;60.55;;
71030;Laerm;63723;51.436;5.976;2023-04-15T00:14:11;51.96;50.34;53.71;;
71030;Laerm;63723;51.436;5.976;2023-04-15T00:14:21;52.20;50.34;54.22;;
71030;Laerm;63723;51.436;5.976;2023-04-15T00:14:32;52.61;50.91;55.28;;
71030;Laerm;63723;51.436;5.976;2023-04-15T00:14:42;52.71;50.84;64.25;;
71030;Laerm;63723;51.436;5.976;2023-04-15T00:14:54;52.68;50.75;62.93;;
71030;Laerm;63723;51.436;5.976;2023-04-15T00:15:06;52.87;50.72;61.63;;
71030;Laerm;63723;51.436;5.976;2023-04-15T00:15:18;52.52;50.26;57.05;;
71030;Laerm;63723;51.436;5.976;2023-04-15T00:15:28;52.39;50.75;54.16;;
71030;Laerm;63723;51.436;5.976;2023-04-15T00:15:38;52.52;50.95;54.84;;
71030;Laerm;63723;51.436;5.976;2023-04-15T00:15:49;53.05;50.86;57.47;;
71030;Laerm;63723;51.436;5.976;2023-04-15T00:15:59;52.24;50.39;56.93;;
71030;Laerm;63723;51.436;5.976;2023-04-15T00:16:09;51.59;49.40;61.07;;
71030;Laerm;63723;51.436;5.976;2023-04-15T00:16:20;51.47;49.51;55.31;;
71030;Laerm;63723;51.436;5.976;2023-04-15T00:16:30;52.09;50.32;55.09;;
71030;Laerm;63723;51.436;5.976;2023-04-15T00:16:41;52.24;50.25;62.36;;
71030;Laerm;63723;51.436;5.976;2023-04-15T00:16:51;51.68;50.07;53.68;;
71030;Laerm;63723;51.436;5.976;2023-04-15T00:17:05;52.35;50.60;55.85;;
71030;Laerm;63723;51.436;5.976;2023-04-15T00:17:15;54.29;50.45;58.71;;
71030;Laerm;63723;51.436;5.976;2023-04-15T00:17:26;54.16;51.25;57.46;;
71030;Laerm;63723;51.436;5.976;2023-04-15T00:17:36;54.60;52.14;57.39;;
71030;Laerm;63723;51.436;5.976;2023-04-15T00:17:49;54.95;52.41;62.35;;
71030;Laerm;63723;51.436;5.976;2023-04-15T00:17:59;53.16;50.05;58.13;;
71030;Laerm;63723;51.436;5.976;2023-04-15T00:18:10;52.59;50.65;54.17;;
71030;Laerm;63723;51.436;5.976;2023-04-15T00:18:20;52.03;50.51;54.04;;
71030;Laerm;63723;51.436;5.976;2023-04-15T00:18:30;51.88;50.43;56.25;;
71030;Laerm;63723;51.436;5.976;2023-04-15T00:18:41;52.46;50.49;57.62;;
71030;Laerm;63723;51.436;5.976;2023-04-15T00:18:51;52.41;50.47;54.66;;
71030;Laerm;63723;51.436;5.976;2023-04-15T00:19:02;52.47;50.50;56.79;;
71030;Laerm;63723;51.436;5.976;2023-04-15T00:19:12;52.52;50.54;56.00;;
71030;Laerm;63723;51.436;5.976;2023-04-15T00:19:23;52.04;50.26;54.16;;
71030;Laerm;63723;51.436;5.976;2023-04-15T00:19:34;52.47;50.72;59.36;;
71030;Laerm;63723;51.436;5.976;2023-04-15T00:19:44;52.14;50.73;55.19;;
71030;Laerm;63723;51.436;5.976;2023-04-15T00:19:55;52.25;50.20;56.27;;
71030;Laerm;63723;51.436;5.976;2023-04-15T00:20:05;51.86;50.30;55.87;;
71030;Laerm;63723;51.436;5.976;2023-04-15T00:20:16;52.12;50.25;56.14;;
71030;Laerm;63723;51.436;5.976;2023-04-15T00:20:26;53.34;51.56;56.18;;
71030;Laerm;63723;51.436;5.976;2023-04-15T00:20:37;53.34;50.99;54.91;;
71030;Laerm;63723;51.436;5.976;2023-04-15T00:20:47;52.56;50.76;56.51;;
71030;Laerm;63723;51.436;5.976;2023-04-15T00:20:57;52.52;50.38;60.94;;
71030;Laerm;63723;51.436;5.976;2023-04-15T00:21:08;52.08;49.95;54.39;;
71030;Laerm;63723;51.436;5.976;2023-04-15T00:21:19;51.56;49.99;56.87;;
71030;Laerm;63723;51.436;5.976;2023-04-15T00:21:30;51.63;50.20;61.08;;
71030;Laerm;63723;51.436;5.976;2023-04-15T00:21:40;51.38;50.15;53.20;;
71030;Laerm;63723;51.436;5.976;2023-04-15T00:21:51;51.61;49.82;60.25;;
71030;Laerm;63723;51.436;5.976;2023-04-15T00:22:01;51.52;49.75;52.95;;
71030;Laerm;63723;51.436;5.976;2023-04-15T00:22:12;52.30;50.34;56.21;;
71030;Laerm;63723;51.436;5.976;2023-04-15T00:22:22;51.87;50.19;53.72;;
71030;Laerm;63723;51.436;5.976;2023-04-15T00:22:32;51.82;50.32;53.29;;
71030;Laerm;63723;51.436;5.976;2023-04-15T00:22:43;51.68;50.30;53.71;;
71030;Laerm;63723;51.436;5.976;2023-04-15T00:22:53;51.67;49.86;56.73;;
71030;Laerm;63723;51.436;5.976;2023-04-15T00:23:03;51.46;49.81;55.48;;
71030;Laerm;63723;51.436;5.976;2023-04-15T00:23:14;52.82;50.17;56.04;;
71030;Laerm;63723;51.436;5.976;2023-04-15T00:23:24;51.96;49.98;54.87;;
71030;Laerm;63723;51.436;5.976;2023-04-15T00:23:35;51.63;49.71;55.40;;
71030;Laerm;63723;51.436;5.976;2023-04-15T00:23:45;51.95;49.62;53.78;;
71030;Laerm;63723;51.436;5.976;2023-04-15T00:24:01;51.83;50.14;53.51;;
71030;Laerm;63723;51.436;5.976;2023-04-15T00:24:12;51.72;50.14;55.60;;
71030;Laerm;63723;51.436;5.976;2023-04-15T00:24:23;52.12;50.41;61.35;;
71030;Laerm;63723;51.436;5.976;2023-04-15T00:24:33;52.06;50.04;61.27;;
71030;Laerm;63723;51.436;5.976;2023-04-15T00:24:43;51.99;50.14;60.53;;
71030;Laerm;63723;51.436;5.976;2023-04-15T00:24:54;51.54;49.93;53.82;;
71030;Laerm;63723;51.436;5.976;2023-04-15T00:25:04;52.26;50.10;55.49;;
71030;Laerm;63723;51.436;5.976;2023-04-15T00:25:14;52.14;50.62;53.66;;
71030;Laerm;63723;51.436;5.976;2023-04-15T00:25:25;51.89;50.14;56.47;;
71030;Laerm;63723;51.436;5.976;2023-04-15T00:25:35;51.48;49.50;60.02;;
71030;Laerm;63723;51.436;5.976;2023-04-15T00:25:46;52.08;50.27;53.86;;
71030;Laerm;63723;51.436;5.976;2023-04-15T00:25:56;51.87;50.16;61.33;;
71030;Laerm;63723;51.436;5.976;2023-04-15T00:26:06;51.58;50.01;56.38;;
71030;Laerm;63723;51.436;5.976;2023-04-15T00:26:17;51.35;49.87;55.79;;
71030;Laerm;63723;51.436;5.976;2023-04-15T00:26:28;52.13;49.77;62.43;;
71030;Laerm;63723;51.436;5.976;2023-04-15T00:26:38;52.07;50.26;54.35;;
71030;Laerm;63723;51.436;5.976;2023-04-15T00:26:49;51.55;49.98;53.38;;
71030;Laerm;63723;51.436;5.976;2023-04-15T00:26:59;51.59;49.71;53.36;;
71030;Laerm;63723;51.436;5.976;2023-04-15T00:27:09;51.56;49.53;61.60;;
71030;Laerm;63723;51.436;5.976;2023-04-15T00:27:20;50.82;49.33;52.28;;
71030;Laerm;63723;51.436;5.976;2023-04-15T00:27:31;52.00;49.47;57.18;;
71030;Laerm;63723;51.436;5.976;2023-04-15T00:27:41;50.80;49.00;55.91;;
71030;Laerm;63723;51.436;5.976;2023-04-15T00:27:52;50.76;49.37;52.40;;
71030;Laerm;63723;51.436;5.976;2023-04-15T00:28:02;51.97;49.25;56.65;;
71030;Laerm;63723;51.436;5.976;2023-04-15T00:28:13;53.87;49.75;61.54;;
71030;Laerm;63723;51.436;5.976;2023-04-15T00:28:23;53.52;49.93;61.57;;
71030;Laerm;63723;51.436;5.976;2023-04-15T00:28:33;54.66;51.89;58.24;;
71030;Laerm;63723;51.436;5.976;2023-04-15T00:28:44;54.19;52.07;57.34;;
71030;Laerm;63723;51.436;5.976;2023-04-15T00:28:54;56.70;53.03;67.56;;
71030;Laerm;63723;51.436;5.976;2023-04-15T00:29:05;58.16;54.04;67.00;;
71030;Laerm;63723;51.436;5.976;2023-04-15T00:29:15;57.36;54.00;66.70;;
71030;Laerm;63723;51.436;5.976;2023-04-15T00:29:25;57.17;53.98;68.24;;
71030;Laerm;63723;51.436;5.976;2023-04-15T00:29:36;58.07;52.94;66.16;;
71030;Laerm;63723;51.436;5.976;2023-04-15T00:29:46;58.99;50.21;66.09;;
71030;Laerm;63723;51.436;5.976;2023-04-15T00:29:56;65.94;54.19;74.39;;
71030;Laerm;63723;51.436;5.976;2023-04-15T00:30:07;64.76;54.10;74.79;;
71030;Laerm;63723;51.436;5.976;2023-04-15T00:30:17;66.24;53.41;75.40;;
71030;Laerm;63723;51.436;5.976;2023-04-15T00:30:28;69.82;52.73;76.39;;
71030;Laerm;63723;51.436;5.976;2023-04-15T00:30:38;57.19;50.24;71.67;;
71030;Laerm;63723;51.436;5.976;2023-04-15T00:30:48;57.32;50.97;68.45;;
71030;Laerm;63723;51.436;5.976;2023-04-15T00:30:59;56.73;51.10;69.67;;
71030;Laerm;63723;51.436;5.976;2023-04-15T00:31:09;55.59;51.43;69.73;;
71030;Laerm;63723;51.436;5.976;2023-04-15T00:31:20;56.59;51.37;69.86;;
71030;Laerm;63723;51.436;5.976;2023-04-15T00:31:30;56.78;50.71;70.28;;
71030;Laerm;63723;51.436;5.976;2023-04-15T00:31:41;55.95;50.56;69.49;;
71030;Laerm;63723;51.436;5.976;2023-04-15T00:31:51;55.23;49.82;69.06;;
71030;Laerm;63723;51.436;5.976;2023-04-15T00:32:02;56.63;50.92;69.39;;
71030;Laerm;63723;51.436;5.976;2023-04-15T00:32:12;56.75;50.26;70.20;;
71030;Laerm;63723;51.436;5.976;2023-04-15T00:32:22;56.36;49.83;69.68;;
71030;Laerm;63723;51.436;5.976;2023-04-15T00:32:32;55.27;50.02;69.52;;
71030;Laerm;63723;51.436;5.976;2023-04-15T00:32:43;54.37;51.38;66.35;;
71030;Laerm;63723;51.436;5.976;2023-04-15T00:32:53;54.54;51.35;69.01;;
71030;Laerm;63723;51.436;5.976;2023-04-15T00:33:04;55.42;50.59;68.54;;
71030;Laerm;63723;51.436;5.976;2023-04-15T00:33:14;55.72;51.07;69.12;;
71030;Laerm;63723;51.436;5.976;2023-04-15T00:33:28;54.55;50.57;68.19;;
71030;Laerm;63723;51.436;5.976;2023-04-15T00:33:38;53.85;50.13;66.55;;
71030;Laerm;63723;51.436;5.976;2023-04-15T00:33:49;56.26;49.69;69.99;;
71030;Laerm;63723;51.436;5.976;2023-04-15T00:33:59;56.57;49.25;70.50;;
71030;Laerm;63723;51.436;5.976;2023-04-15T00:34:09;57.50;49.21;70.89;;
71030;Laerm;63723;51.436;5.976;2023-04-15T00:34:19;57.25;48.84;69.82;;
71030;Laerm;63723;51.436;5.976;2023-04-15T00:34:30;55.68;48.78;70.55;;
71030;Laerm;63723;51.436;5.976;2023-04-15T00:34:40;57.50;48.73;71.08;;
71030;Laerm;63723;51.436;5.976;2023-04-15T00:34:51;57.44;48.71;69.85;;
71030;Laerm;63723;51.436;5.976;2023-04-15T00:35:01;57.92;48.43;70.08;;
71030;Laerm;63723;51.436;5.976;2023-04-15T00:35:13;56.04;48.34;69.68;;
71030;Laerm;63723;51.436;5.976;2023-04-15T00:35:23;55.77;48.72;69.55;;
71030;Laerm;63723;51.436;5.976;2023-04-15T00:35:33;57.52;49.00;71.30;;
71030;Laerm;63723;51.436;5.976;2023-04-15T00:35:45;56.27;48.49;71.08;;
71030;Laerm;63723;51.436;5.976;2023-04-15T00:35:56;56.05;48.68;70.71;;
71030;Laerm;63723;51.436;5.976;2023-04-15T00:36:06;55.82;48.57;69.81;;
71030;Laerm;63723;51.436;5.976;2023-04-15T00:36:17;55.89;48.71;71.18;;
71030;Laerm;63723;51.436;5.976;2023-04-15T00:36:28;57.10;48.84;69.63;;
71030;Laerm;63723;51.436;5.976;2023-04-15T00:36:38;56.93;48.89;71.80;;
71030;Laerm;63723;51.436;5.976;2023-04-15T00:36:49;55.08;48.51;69.36;;
71030;Laerm;63723;51.436;5.976;2023-04-15T00:36:59;56.19;48.80;69.73;;
71030;Laerm;63723;51.436;5.976;2023-04-15T00:37:09;56.83;48.86;69.75;;
71030;Laerm;63723;51.436;5.976;2023-04-15T00:37:20;55.03;48.80;68.68;;
71030;Laerm;63723;51.436;5.976;2023-04-15T00:37:30;56.08;48.77;69.12;;
71030;Laerm;63723;51.436;5.976;2023-04-15T00:37:40;58.61;49.13;69.93;;
71030;Laerm;63723;51.436;5.976;2023-04-15T00:37:51;57.03;49.28;69.50;;
71030;Laerm;63723;51.436;5.976;2023-04-15T00:38:02;56.72;49.43;70.46;;
71030;Laerm;63723;51.436;5.976;2023-04-15T00:38:13;57.20;49.10;71.76;;
71030;Laerm;63723;51.436;5.976;2023-04-15T00:38:24;55.60;49.15;68.88;;
71030;Laerm;63723;51.436;5.976;2023-04-15T00:38:35;56.14;48.58;69.94;;
71030;Laerm;63723;51.436;5.976;2023-04-15T00:38:45;57.92;48.95;70.99;;
71030;Laerm;63723;51.436;5.976;2023-04-15T00:38:56;57.86;49.13;71.10;;
71030;Laerm;63723;51.436;5.976;2023-04-15T00:39:06;56.44;49.29;70.15;;
71030;Laerm;63723;51.436;5.976;2023-04-15T00:39:16;57.23;49.23;69.46;;
71030;Laerm;63723;51.436;5.976;2023-04-15T00:39:27;57.08;49.67;69.64;;
71030;Laerm;63723;51.436;5.976;2023-04-15T00:39:37;57.29;49.58;69.37;;
71030;Laerm;63723;51.436;5.976;2023-04-15T00:39:48;58.31;49.19;71.14;;
71030;Laerm;63723;51.436;5.976;2023-04-15T00:39:58;58.29;49.64;70.48;;
71030;Laerm;63723;51.436;5.976;2023-04-15T00:40:10;55.12;49.73;68.43;;
71030;Laerm;63723;51.436;5.976;2023-04-15T00:40:21;57.30;49.82;71.86;;
71030;Laerm;63723;51.436;5.976;2023-04-15T00:40:33;57.63;50.56;69.40;;
71030;Laerm;63723;51.436;5.976;2023-04-15T00:40:44;57.94;50.86;70.55;;
71030;Laerm;63723;51.436;5.976;2023-04-15T00:40:54;57.29;50.39;72.05;;
71030;Laerm;63723;51.436;5.976;2023-04-15T00:41:05;55.20;50.25;63.00;;
71030;Laerm;63723;51.436;5.976;2023-04-15T00:41:17;52.73;50.20;58.73;;
71030;Laerm;63723;51.436;5.976;2023-04-15T00:41:28;53.08;50.51;55.91;;
71030;Laerm;63723;51.436;5.976;2023-04-15T00:41:38;53.28;51.03;56.36;;
71030;Laerm;63723;51.436;5.976;2023-04-15T00:41:49;53.14;50.88;58.44;;
71030;Laerm;63723;51.436;5.976;2023-04-15T00:41:59;52.20;50.39;56.70;;
71030;Laerm;63723;51.436;5.976;2023-04-15T00:42:09;52.05;49.95;57.90;;
71030;Laerm;63723;51.436;5.976;2023-04-15T00:42:19;52.45;50.55;58.63;;
71030;Laerm;63723;51.436;5.976;2023-04-15T00:42:30;52.03;50.33;54.54;;
71030;Laerm;63723;51.436;5.976;2023-04-15T00:42:41;51.88;49.54;56.32;;
71030;Laerm;63723;51.436;5.976;2023-04-15T00:42:51;52.36;49.90;60.62;;
71030;Laerm;63723;51.436;5.976;2023-04-15T00:43:01;55.72;50.22;60.56;;
71030;Laerm;63723;51.436;5.976;2023-04-15T00:43:11;54.41;49.46;62.09;;
71030;Laerm;63723;51.436;5.976;2023-04-15T00:43:22;51.13;49.20;55.88;;
71030;Laerm;63723;51.436;5.976;2023-04-15T00:43:32;51.29;49.56;56.36;;
71030;Laerm;63723;51.436;5.976;2023-04-15T00:43:42;51.39;49.20;59.03;;
71030;Laerm;63723;51.436;5.976;2023-04-15T00:43:53;51.45;49.28;56.53;;
71030;Laerm;63723;51.436;5.976;2023-04-15T00:44:04;51.29;49.04;58.22;;
71030;Laerm;63723;51.436;5.976;2023-04-15T00:44:14;53.07;48.99;60.03;;
71030;Laerm;63723;51.436;5.976;2023-04-15T00:44:24;53.11;49.99;58.47;;
71030;Laerm;63723;51.436;5.976;2023-04-15T00:44:35;51.97;49.48;55.36;;
71030;Laerm;63723;51.436;5.976;2023-04-15T00:44:45;52.62;49.48;58.44;;
71030;Laerm;63723;51.436;5.976;2023-04-15T00:44:55;53.07;49.58;62.52;;
71030;Laerm;63723;51.436;5.976;2023-04-15T00:45:06;54.89;49.76;63.22;;
71030;Laerm;63723;51.436;5.976;2023-04-15T00:45:17;52.31;49.64;59.36;;
71030;Laerm;63723;51.436;5.976;2023-04-15T00:45:28;53.49;49.92;61.84;;
71030;Laerm;63723;51.436;5.976;2023-04-15T00:45:39;57.00;50.27;62.14;;
71030;Laerm;63723;51.436;5.976;2023-04-15T00:45:50;51.93;49.69;56.68;;
71030;Laerm;63723;51.436;5.976;2023-04-15T00:46:00;52.09;48.98;57.98;;
71030;Laerm;63723;51.436;5.976;2023-04-15T00:46:13;52.19;49.59;59.68;;
71030;Laerm;63723;51.436;5.976;2023-04-15T00:46:25;51.96;49.61;57.34;;
71030;Laerm;63723;51.436;5.976;2023-04-15T00:46:37;51.80;49.72;56.19;;
71030;Laerm;63723;51.436;5.976;2023-04-15T00:46:50;52.31;49.69;60.23;;
71030;Laerm;63723;51.436;5.976;2023-04-15T00:47:00;52.33;50.01;58.28;;
71030;Laerm;63723;51.436;5.976;2023-04-15T00:47:13;52.08;49.74;57.00;;
71030;Laerm;63723;51.436;5.976;2023-04-15T00:47:24;52.43;49.72;63.50;;
71030;Laerm;63723;51.436;5.976;2023-04-15T00:47:36;56.03;49.44;65.58;;
71030;Laerm;63723;51.436;5.976;2023-04-15T00:47:46;51.76;49.46;59.28;;
71030;Laerm;63723;51.436;5.976;2023-04-15T00:47:57;52.64;49.20;65.14;;
71030;Laerm;63723;51.436;5.976;2023-04-15T00:48:07;55.86;49.88;65.93;;
71030;Laerm;63723;51.436;5.976;2023-04-15T00:48:19;54.03;50.09;66.31;;
71030;Laerm;63723;51.436;5.976;2023-04-15T00:48:29;55.30;50.05;64.34;;
71030;Laerm;63723;51.436;5.976;2023-04-15T00:48:40;52.90;50.14;60.11;;
71030;Laerm;63723;51.436;5.976;2023-04-15T00:48:51;55.00;50.24;64.74;;
71030;Laerm;63723;51.436;5.976;2023-04-15T00:49:03;55.51;50.44;65.13;;
71030;Laerm;63723;51.436;5.976;2023-04-15T00:49:13;53.95;50.54;63.26;;
71030;Laerm;63723;51.436;5.976;2023-04-15T00:49:24;55.37;50.69;65.60;;
71030;Laerm;63723;51.436;5.976;2023-04-15T00:49:34;54.06;50.80;62.43;;
71030;Laerm;63723;51.436;5.976;2023-04-15T00:49:45;55.51;49.67;66.74;;
71030;Laerm;63723;51.436;5.976;2023-04-15T00:49:55;58.49;50.17;62.03;;
71030;Laerm;63723;51.436;5.976;2023-04-15T00:50:06;58.31;49.95;66.34;;
71030;Laerm;63723;51.436;5.976;2023-04-15T00:50:16;56.83;49.62;66.62;;
71030;Laerm;63723;51.436;5.976;2023-04-15T00:50:26;53.42;49.51;62.41;;
71030;Laerm;63723;51.436;5.976;2023-04-15T00:50:37;55.36;49.66;63.87;;
71030;Laerm;63723;51.436;5.976;2023-04-15T00:50:47;56.01;49.95;66.00;;
71030;Laerm;63723;51.436;5.976;2023-04-15T00:50:57;57.71;49.82;66.72;;
71030;Laerm;63723;51.436;5.976;2023-04-15T00:51:08;58.44;49.96;70.09;;
71030;Laerm;63723;51.436;5.976;2023-04-15T00:51:18;53.44;49.65;60.74;;
71030;Laerm;63723;51.436;5.976;2023-04-15T00:51:29;52.23;49.37;61.28;;
71030;Laerm;63723;51.436;5.976;2023-04-15T00:51:40;53.91;49.68;62.03;;
71030;Laerm;63723;51.436;5.976;2023-04-15T00:51:51;53.14;48.83;69.01;;
71030;Laerm;63723;51.436;5.976;2023-04-15T00:52:01;57.31;49.94;65.60;;
71030;Laerm;63723;51.436;5.976;2023-04-15T00:52:12;57.02;49.64;65.63;;
71030;Laerm;63723;51.436;5.976;2023-04-15T00:52:22;54.07;49.80;63.60;;
71030;Laerm;63723;51.436;5.976;2023-04-15T00:52:32;54.87;49.65;64.09;;
71030;Laerm;63723;51.436;5.976;2023-04-15T00:52:43;51.67;49.97;60.19;;
71030;Laerm;63723;51.436;5.976;2023-04-15T00:52:54;52.29;49.89;62.04;;
71030;Laerm;63723;51.436;5.976;2023-04-15T00:53:04;55.86;49.99;64.52;;
71030;Laerm;63723;51.436;5.976;2023-04-15T00:53:14;54.96;49.42;63.62;;
71030;Laerm;63723;51.436;5.976;2023-04-15T00:53:25;55.91;49.61;65.98;;
71030;Laerm;63723;51.436;5.976;2023-04-15T00:53:35;55.22;50.09;63.72;;
71030;Laerm;63723;51.436;5.976;2023-04-15T00:53:45;54.14;50.50;63.22;;
71030;Laerm;63723;51.436;5.976;2023-04-15T00:53:56;56.58;49.96;64.59;;
71030;Laerm;63723;51.436;5.976;2023-04-15T00:54:06;59.49;51.97;65.86;;
71030;Laerm;63723;51.436;5.976;2023-04-15T00:54:16;56.14;50.68;64.70;;
71030;Laerm;63723;51.436;5.976;2023-04-15T00:54:27;53.74;50.73;63.74;;
71030;Laerm;63723;51.436;5.976;2023-04-15T00:54:37;53.47;50.88;58.41;;
71030;Laerm;63723;51.436;5.976;2023-04-15T00:54:47;53.07;50.90;55.00;;
71030;Laerm;63723;51.436;5.976;2023-04-15T00:54:58;56.45;51.32;65.62;;
71030;Laerm;63723;51.436;5.976;2023-04-15T00:55:09;54.20;50.89;64.24;;
71030;Laerm;63723;51.436;5.976;2023-04-15T00:55:20;53.56;51.05;58.08;;
71030;Laerm;63723;51.436;5.976;2023-04-15T00:55:30;55.02;51.40;63.57;;
71030;Laerm;63723;51.436;5.976;2023-04-15T00:55:40;54.82;51.23;63.71;;
71030;Laerm;63723;51.436;5.976;2023-04-15T00:55:51;54.11;50.74;63.61;;
71030;Laerm;63723;51.436;5.976;2023-04-15T00:56:01;54.71;51.21;61.90;;
71030;Laerm;63723;51.436;5.976;2023-04-15T00:56:12;52.87;49.64;61.12;;
71030;Laerm;63723;51.436;5.976;2023-04-15T00:56:22;52.35;49.63;62.12;;
71030;Laerm;63723;51.436;5.976;2023-04-15T00:56:34;52.05;50.11;60.43;;
71030;Laerm;63723;51.436;5.976;2023-04-15T00:56:45;51.84;49.70;61.06;;
71030;Laerm;63723;51.436;5.976;2023-04-15T00:56:55;52.04;49.65;60.32;;
71030;Laerm;63723;51.436;5.976;2023-04-15T00:57:06;51.71;49.23;60.02;;
71030;Laerm;63723;51.436;5.976;2023-04-15T00:57:18;51.22;48.94;61.49;;
71030;Laerm;63723;51.436;5.976;2023-04-15T00:57:28;52.40;49.21;60.99;;
71030;Laerm;63723;51.436;5.976;2023-04-15T00:57:38;52.48;49.07;61.99;;
71030;Laerm;63723;51.436;5.976;2023-04-15T00:57:49;51.57;49.04;60.81;;
71030;Laerm;63723;51.436;5.976;2023-04-15T00:58:01;52.65;49.36;64.43;;
71030;Laerm;63723;51.436;5.976;2023-04-15T00:58:11;52.30;48.90;62.19;;
71030;Laerm;63723;51.436;5.976;2023-04-15T00:58:21;52.25;49.17;62.81;;
71030;Laerm;63723;51.436;5.976;2023-04-15T00:58:32;51.54;48.80;59.57;;
71030;Laerm;63723;51.436;5.976;2023-04-15T00:58:42;51.68;48.97;61.31;;
71030;Laerm;63723;51.436;5.976;2023-04-15T00:58:52;51.76;49.08;59.58;;
71030;Laerm;63723;51.436;5.976;2023-04-15T00:59:03;52.05;49.72;61.19;;
71030;Laerm;63723;51.436;5.976;2023-04-15T00:59:15;51.80;49.43;65.80;;
71030;Laerm;63723;51.436;5.976;2023-04-15T00:59:26;52.54;49.33;61.82;;
71030;Laerm;63723;51.436;5.976;2023-04-15T00:59:36;51.95;49.39;63.16;;
71030;Laerm;63723;51.436;5.976;2023-04-15T00:59:47;51.79;49.60;61.12;;